Terminal Aerodrome Forecast
Issued by NWS

Home | Current Version | Previous Version | Text Only | Print | Product List | Glossary On
Versions: 1 2 3 4 5 6 7 8 9 10 11 12
369
FTUS46 KMTR 141120
TAFSJC
TAF
KSJC 141120Z 1412/1512 VRB03KT P6SM FEW200
     FM142100 31007KT P6SM SKC
     FM150400 VRB03KT P6SM FEW200=

USA.gov is the U.S. government's official web portal to all federal, state and local government web resources and services.